Disclaimer

Please do not use the information listed here in-flight or in-navigation, as they are not provided to us by the airports but are provided by volunteers, so they might be outdated.

Search


Regions


Airport information page

Radio informations:
Tower (TWR) - 122.1 MHz
OPS - 284.0 MHz
Ground (GND) - 389.4 MHz
Director (DIR) - 124.15 MHz
Automatic Terminal Information Service (ATIS) - 277.225 MHz
Approach (APP) - 124.15 MHz

Airport informations:
Latitude: 52° 38' 54.07" N
Longitude: 000° 33' 02.49" E
Elevation: 75 feet - 23 meters
Operating hours: Remarks
Operating agency: Military
Timezone: UTC 0(+1DT) - Last Sunday in March to last Sunday in October
Fuel: Jet A1+, Jet A1 with icing inhibitor.

Runway information:
01/19 - 6086 x 300 feet< - >1855 x 91 meters
06/24 - 9140 x 200 feet< - >2786 x 61 meters

Recent METARs:
EGYM 170750Z AUTO 02003KT 2400 BR OVC009/// 07/06 Q1028
EGYM 170750Z AUTO 02003KT 2400 BR OVC009/// 07/06 Q1028
EGYM 170750Z AUTO 02003KT 2400 BR OVC009/// 07/06 Q1028

Airport on the map: